W67 EFHK-EFTP
Flight info
| Callsign | W67 |
|---|---|
| Flight time | N/A |
| Altitude | 24000 |
| Route | NEPEK Y361 NISVI |
| Aircraft | LJ35/M-SGHRWXY/SB1 |
Departure
| Time | 2026-04-26 00:06 |
|---|---|
| Airport | Helsinki Vantaa Airport (EFHK) |
Arrival
| Time | N/A |
|---|---|
| Airport | Tampere-Pirkkala Airport (EFTP) |
| Time | Latitude | Longitude | Altitude | Speed | Heading |
|---|---|---|---|---|---|
| 2026-04-25 23:56 | 60.30884 | 24.98135 | 154 ft | 0 kts | 32° |
| 2026-04-25 23:58 | 60.30867 | 24.98069 | 155 ft | 0 kts | 240° |
| 2026-04-26 00:04 | 60.30866 | 24.98063 | 155 ft | 3 kts | 242° |
| 2026-04-26 00:05 | 60.30849 | 24.98059 | 155 ft | 3 kts | 124° |
| 2026-04-26 00:05 | 60.30873 | 24.98092 | 154 ft | 6 kts | 34° |
| 2026-04-26 00:05 | 60.30921 | 24.98167 | 153 ft | 11 kts | 33° |
| 2026-04-26 00:05 | 60.30971 | 24.98302 | 151 ft | 15 kts | 60° |
| 2026-04-26 00:06 | 60.31058 | 24.98447 | 150 ft | 18 kts | 357° |
| 2026-04-26 00:06 | 60.31135 | 24.98390 | 152 ft | 6 kts | 333° |
| 2026-04-26 00:06 | 60.31569 | 24.97948 | 156 ft | 138 kts | 332° |
| 2026-04-26 00:06 | 60.32421 | 24.97005 | 1906 ft | 156 kts | 334° |
| 2026-04-26 00:07 | 60.33470 | 24.95743 | 3386 ft | 189 kts | 340° |
| 2026-04-26 00:07 | 60.34881 | 24.94540 | 4372 ft | 262 kts | 342° |
| 2026-04-26 00:07 | 60.36752 | 24.92810 | 4502 ft | 298 kts | 337° |
| 2026-04-26 00:07 | 60.38450 | 24.90891 | 4633 ft | 264 kts | 335° |
| 2026-04-26 00:08 | 60.39994 | 24.89204 | 4673 ft | 238 kts | 338° |
| 2026-04-26 00:08 | 60.41425 | 24.87762 | 4787 ft | 241 kts | 339° |
| 2026-04-26 00:08 | 60.42965 | 24.86192 | 6734 ft | 258 kts | 334° |
| 2026-04-26 00:08 | 60.44551 | 24.84259 | 8918 ft | 271 kts | 332° |
| 2026-04-26 00:09 | 60.46200 | 24.82295 | 11052 ft | 278 kts | 333° |
| 2026-04-26 00:09 | 60.47880 | 24.80311 | 13282 ft | 280 kts | 332° |
| 2026-04-26 00:09 | 60.49553 | 24.78315 | 15290 ft | 281 kts | 332° |
| 2026-04-26 00:09 | 60.51282 | 24.76251 | 16872 ft | 295 kts | 332° |
| 2026-04-26 00:10 | 60.53064 | 24.74121 | 18290 ft | 307 kts | 332° |
| 2026-04-26 00:10 | 60.54955 | 24.71852 | 19606 ft | 317 kts | 330° |
| 2026-04-26 00:10 | 60.56886 | 24.69535 | 20888 ft | 327 kts | 330° |
| 2026-04-26 00:10 | 60.58845 | 24.67181 | 22111 ft | 336 kts | 329° |
| 2026-04-26 00:11 | 60.60886 | 24.64725 | 23257 ft | 346 kts | 329° |
| 2026-04-26 00:11 | 60.63011 | 24.62165 | 23493 ft | 354 kts | 329° |
| 2026-04-26 00:11 | 60.65098 | 24.59649 | 23501 ft | 344 kts | 329° |
| 2026-04-26 00:11 | 60.67129 | 24.57195 | 23508 ft | 335 kts | 329° |
| 2026-04-26 00:12 | 60.69110 | 24.54797 | 23505 ft | 328 kts | 329° |
| 2026-04-26 00:12 | 60.71056 | 24.52438 | 23500 ft | 322 kts | 329° |
| 2026-04-26 00:12 | 60.72967 | 24.50119 | 23500 ft | 317 kts | 329° |
| 2026-04-26 00:12 | 60.74865 | 24.47870 | 23501 ft | 314 kts | 331° |
| 2026-04-26 00:13 | 60.76800 | 24.45725 | 23509 ft | 319 kts | 331° |
| 2026-04-26 00:13 | 60.78748 | 24.43507 | 23510 ft | 322 kts | 330° |
| 2026-04-26 00:13 | 60.80717 | 24.41268 | 23510 ft | 325 kts | 331° |
| 2026-04-26 00:13 | 60.82708 | 24.39026 | 23517 ft | 328 kts | 331° |
| 2026-04-26 00:14 | 60.84710 | 24.36769 | 23524 ft | 329 kts | 331° |
| 2026-04-26 00:14 | 60.86708 | 24.34505 | 23221 ft | 327 kts | 331° |
| 2026-04-26 00:14 | 60.88704 | 24.32239 | 22670 ft | 326 kts | 331° |
| 2026-04-26 00:14 | 60.90680 | 24.29991 | 22165 ft | 322 kts | 331° |
| 2026-04-26 00:15 | 60.92627 | 24.27776 | 21530 ft | 318 kts | 332° |
| 2026-04-26 00:15 | 60.94553 | 24.25585 | 20911 ft | 314 kts | 332° |
| 2026-04-26 00:15 | 60.96444 | 24.23427 | 20220 ft | 308 kts | 332° |
| 2026-04-26 00:15 | 60.98308 | 24.21296 | 19473 ft | 304 kts | 332° |
| 2026-04-26 00:16 | 61.00123 | 24.19221 | 18767 ft | 300 kts | 333° |
| 2026-04-26 00:16 | 61.01932 | 24.17149 | 18103 ft | 295 kts | 333° |
| 2026-04-26 00:16 | 61.03712 | 24.15107 | 17353 ft | 290 kts | 333° |
| 2026-04-26 00:16 | 61.05458 | 24.13102 | 16517 ft | 285 kts | 333° |
| 2026-04-26 00:17 | 61.07176 | 24.11129 | 15723 ft | 280 kts | 333° |
| 2026-04-26 00:17 | 61.08866 | 24.09182 | 14952 ft | 276 kts | 333° |
| 2026-04-26 00:17 | 61.10526 | 24.07267 | 14199 ft | 271 kts | 333° |
| 2026-04-26 00:17 | 61.12033 | 24.04959 | 13449 ft | 271 kts | 318° |
| 2026-04-26 00:18 | 61.13163 | 24.01845 | 12674 ft | 275 kts | 302° |
| 2026-04-26 00:18 | 61.13914 | 23.98251 | 12053 ft | 270 kts | 296° |
| 2026-04-26 00:18 | 61.14610 | 23.94663 | 11301 ft | 267 kts | 297° |
| 2026-04-26 00:18 | 61.15068 | 23.92313 | 10809 ft | 264 kts | 297° |
| 2026-04-26 00:19 | 61.15753 | 23.88808 | 10097 ft | 261 kts | 298° |
| 2026-04-26 00:19 | 61.16428 | 23.85344 | 9380 ft | 257 kts | 298° |
| 2026-04-26 00:19 | 61.17092 | 23.81929 | 8619 ft | 254 kts | 298° |
| 2026-04-26 00:19 | 61.17753 | 23.78530 | 7998 ft | 253 kts | 298° |
| 2026-04-26 00:20 | 61.18402 | 23.75172 | 7424 ft | 250 kts | 298° |
| 2026-04-26 00:20 | 61.19051 | 23.71822 | 6857 ft | 248 kts | 299° |
| 2026-04-26 00:20 | 61.19691 | 23.68509 | 6300 ft | 247 kts | 299° |
| 2026-04-26 00:20 | 61.20094 | 23.66418 | 5949 ft | 246 kts | 299° |